Omerville, Canada
Current Conditions -  °F | °C
As of 10:00 AM on Thursday 18 Dec 2014 (Local Time) from CYSC Reporting Station
Light Snow Light Snow  
Wind Chill: 19°   Ceiling: 700
Heat Index: 28°   Visibility: 9mi
Dew Point: 28°   Wind: 10mph
Humidity: 100%   Direction: 300°WNW
Pressure: 29.76"   Gusts: NA
Location:  45.28°N, 72.12°W
Report Text: CYSC 181500Z AUTO 30009KT 9SM -SN OVC007 M02/M02 A2976 RMK SLP088
Loading
Personal Weather Stations






























Interactive Weather Map New forecast layout! Learn more

10-Day Weather Forecast

Advertisements
Track Severe Weather on mobile